Time,TemperatureF,DewpointF,PressureIn,WindDirection,WindDirectionDegrees,WindSpeedMPH,WindSpeedGustMPH,Humidity,HourlyPrecipIn,Conditions,Clouds,dailyrainin,SoftwareType,DateUTC
2013-02-14 00:03:00,39.9,30.0,29.65,WNW,297,4.0,5.0,69,0.00,,,0.00,weatherlink.com 1.10,2013-02-14 06:03:00,
2013-02-14 00:17:00,39.7,30.0,29.65,WNW,300,3.0,6.0,69,0.00,,,0.00,weatherlink.com 1.10,2013-02-14 06:17:00,
2013-02-14 00:32:00,39.3,31.0,29.66,WNW,290,4.0,6.0,71,0.00,,,0.00,weatherlink.com 1.10,2013-02-14 06:32:00,
2013-02-14 00:47:00,40.0,31.0,29.66,WNW,295,5.0,11.0,71,0.00,,,0.00,weatherlink.com 1.10,2013-02-14 06:47:00,
2013-02-14 01:02:00,40.4,31.0,29.66,WNW,293,6.0,11.0,70,0.00,,,0.00,weatherlink.com 1.10,2013-02-14 07:02:00,
2013-02-14 01:18:00,39.9,31.0,29.67,West,273,3.0,10.0,71,0.00,,,0.00,weatherlink.com 1.10,2013-02-14 07:18:00,
2013-02-14 01:33:00,39.3,31.0,29.68,WNW,294,8.0,9.0,73,0.00,,,0.00,weatherlink.com 1.10,2013-02-14 07:33:00,
2013-02-14 01:48:00,39.6,32.0,29.68,WNW,294,11.0,11.0,73,0.00,,,0.00,weatherlink.com 1.10,2013-02-14 07:48:00,
2013-02-14 02:03:00,40.1,32.0,29.69,WNW,293,4.0,12.0,73,0.00,,,0.00,weatherlink.com 1.10,2013-02-14 08:03:00,
2013-02-14 02:18:00,39.9,32.0,29.69,WNW,290,5.0,11.0,73,0.00,,,0.00,weatherlink.com 1.10,2013-02-14 08:18:00,
2013-02-14 02:33:00,39.3,32.0,29.70,WNW,292,6.0,13.0,74,0.00,,,0.00,weatherlink.com 1.10,2013-02-14 08:33:00,
2013-02-14 02:48:00,38.8,32.0,29.70,WNW,291,3.0,12.0,75,0.00,,,0.00,weatherlink.com 1.10,2013-02-14 08:48:00,
2013-02-14 03:03:00,38.6,31.0,29.70,WSW,242,6.0,14.0,75,0.00,,,0.00,weatherlink.com 1.10,2013-02-14 09:03:00,
2013-02-14 03:18:00,38.3,31.0,29.70,WNW,296,6.0,14.0,76,0.00,,,0.00,weatherlink.com 1.10,2013-02-14 09:18:00,
2013-02-14 03:33:00,37.7,31.0,29.71,NW,312,5.0,8.0,76,0.00,,,0.00,weatherlink.com 1.10,2013-02-14 09:33:00,
2013-02-14 03:48:00,36.4,30.0,29.71,WNW,298,3.0,6.0,78,0.00,,,0.00,weatherlink.com 1.10,2013-02-14 09:48:00,
2013-02-14 04:03:00,36.0,30.0,29.72,WNW,302,2.0,8.0,79,0.00,,,0.00,weatherlink.com 1.10,2013-02-14 10:03:00,
2013-02-14 04:18:00,36.2,31.0,29.72,WNW,298,3.0,11.0,80,0.00,,,0.00,weatherlink.com 1.10,2013-02-14 10:18:00,
2013-02-14 04:33:00,36.8,31.0,29.72,West,280,7.0,12.0,78,0.00,,,0.00,weatherlink.com 1.10,2013-02-14 10:33:00,
2013-02-14 04:48:00,36.2,30.0,29.73,WNW,287,4.0,11.0,79,0.00,,,0.00,weatherlink.com 1.10,2013-02-14 10:48:00,
2013-02-14 05:04:00,36.1,31.0,29.73,WNW,300,7.0,14.0,80,0.00,,,0.00,weatherlink.com 1.10,2013-02-14 11:04:00,
2013-02-14 05:19:00,35.3,30.0,29.74,WNW,299,3.0,5.0,80,0.00,,,0.00,weatherlink.com 1.10,2013-02-14 11:19:00,
2013-02-14 05:34:00,34.8,30.0,29.74,WNW,290,6.0,11.0,82,0.00,,,0.00,weatherlink.com 1.10,2013-02-14 11:34:00,
2013-02-14 05:48:00,34.2,29.0,29.76,WNW,297,5.0,6.0,82,0.00,,,0.00,weatherlink.com 1.10,2013-02-14 11:48:00,
2013-02-14 06:03:00,34.1,30.0,29.77,West,264,4.0,7.0,83,0.00,,,0.00,weatherlink.com 1.10,2013-02-14 12:03:00,
2013-02-14 06:19:00,33.9,29.0,29.77,West,277,2.0,7.0,83,0.00,,,0.00,weatherlink.com 1.10,2013-02-14 12:19:00,
2013-02-14 06:33:00,34.2,30.0,29.78,WNW,285,7.0,10.0,83,0.00,,,0.00,weatherlink.com 1.10,2013-02-14 12:33:00,
2013-02-14 06:49:00,34.0,30.0,29.79,WNW,295,7.0,10.0,84,0.00,,,0.00,weatherlink.com 1.10,2013-02-14 12:49:00,
2013-02-14 07:04:00,34.1,30.0,29.79,WNW,283,4.0,11.0,84,0.00,,,0.00,weatherlink.com 1.10,2013-02-14 13:04:00,
2013-02-14 07:19:00,33.6,29.0,29.80,WNW,299,4.0,7.0,84,0.00,,,0.00,weatherlink.com 1.10,2013-02-14 13:19:00,
2013-02-14 07:34:00,33.0,29.0,29.80,WNW,298,5.0,8.0,85,0.00,,,0.00,weatherlink.com 1.10,2013-02-14 13:34:00,
2013-02-14 07:49:00,33.1,29.0,29.81,WNW,290,2.0,7.0,85,0.00,,,0.00,weatherlink.com 1.10,2013-02-14 13:49:00,
2013-02-14 08:04:00,33.7,30.0,29.81,WNW,294,3.0,7.0,85,0.00,,,0.00,weatherlink.com 1.10,2013-02-14 14:04:00,
2013-02-14 08:19:00,34.5,30.0,29.81,WNW,290,2.0,5.0,84,0.00,,,0.00,weatherlink.com 1.10,2013-02-14 14:19:00,
2013-02-14 08:34:00,35.1,30.0,29.82,WNW,290,4.0,7.0,83,0.00,,,0.00,weatherlink.com 1.10,2013-02-14 14:34:00,
2013-02-14 08:49:00,35.8,31.0,29.82,West,264,5.0,6.0,83,0.00,,,0.00,weatherlink.com 1.10,2013-02-14 14:49:00,
2013-02-14 09:04:00,36.8,32.0,29.82,WNW,284,3.0,6.0,82,0.00,,,0.00,weatherlink.com 1.10,2013-02-14 15:04:00,
2013-02-14 09:19:00,37.2,32.0,29.82,WNW,294,5.0,9.0,80,0.00,,,0.00,weatherlink.com 1.10,2013-02-14 15:19:00,
2013-02-14 09:34:00,37.4,31.0,29.82,WNW,295,10.0,14.0,79,0.00,,,0.00,weatherlink.com 1.10,2013-02-14 15:34:00,
2013-02-14 09:49:00,37.9,32.0,29.83,WNW,302,9.0,14.0,79,0.00,,,0.00,weatherlink.com 1.10,2013-02-14 15:49:00,
2013-02-14 10:04:00,38.4,32.0,29.83,WNW,290,9.0,15.0,78,0.00,,,0.00,weatherlink.com 1.10,2013-02-14 16:04:00,
2013-02-14 10:19:00,39.3,33.0,29.83,WNW,290,10.0,15.0,77,0.00,,,0.00,weatherlink.com 1.10,2013-02-14 16:19:00,
2013-02-14 10:34:00,40.3,33.0,29.84,WNW,295,12.0,18.0,75,0.00,,,0.00,weatherlink.com 1.10,2013-02-14 16:34:00,
2013-02-14 10:49:00,40.9,32.0,29.84,NW,314,11.0,22.0,71,0.00,,,0.00,weatherlink.com 1.10,2013-02-14 16:49:00,
2013-02-14 11:04:00,41.3,32.0,29.85,NW,314,14.0,22.0,69,0.00,,,0.00,weatherlink.com 1.10,2013-02-14 17:04:00,
2013-02-14 11:19:00,41.6,32.0,29.85,WNW,290,9.0,26.0,68,0.00,,,0.00,weatherlink.com 1.10,2013-02-14 17:19:00,
2013-02-14 11:34:00,42.8,30.0,29.85,WNW,296,19.0,21.0,62,0.00,,,0.00,weatherlink.com 1.10,2013-02-14 17:34:00,
2013-02-14 11:49:00,43.0,29.0,29.85,WNW,298,11.0,25.0,58,0.00,,,0.00,weatherlink.com 1.10,2013-02-14 17:49:00,
2013-02-14 12:05:00,42.4,28.0,29.86,WNW,300,17.0,24.0,58,0.00,,,0.00,weatherlink.com 1.10,2013-02-14 18:05:00,
2013-02-14 12:19:00,42.5,28.0,29.86,WNW,295,13.0,26.0,57,0.00,,,0.00,weatherlink.com 1.10,2013-02-14 18:19:00,
2013-02-14 12:34:00,42.9,27.0,29.86,NW,312,18.0,27.0,53,0.00,,,0.00,weatherlink.com 1.10,2013-02-14 18:34:00,
2013-02-14 12:49:00,43.0,27.0,29.85,WNW,297,12.0,24.0,53,0.00,,,0.00,weatherlink.com 1.10,2013-02-14 18:49:00,
2013-02-14 13:04:00,44.9,28.0,29.84,WNW,291,15.0,25.0,51,0.00,,,0.00,weatherlink.com 1.10,2013-02-14 19:04:00,
2013-02-14 13:19:00,44.6,26.0,29.84,NW,318,16.0,23.0,48,0.00,,,0.00,weatherlink.com 1.10,2013-02-14 19:19:00,
2013-02-14 13:34:00,43.5,26.0,29.86,WNW,297,16.0,28.0,50,0.00,,,0.00,weatherlink.com 1.10,2013-02-14 19:34:00,
2013-02-14 13:49:00,43.2,26.0,29.87,NW,308,8.0,20.0,52,0.00,,,0.00,weatherlink.com 1.10,2013-02-14 19:49:00,
2013-02-14 14:05:00,43.1,25.0,29.86,WNW,300,15.0,24.0,50,0.00,,,0.00,weatherlink.com 1.10,2013-02-14 20:05:00,
2013-02-14 14:20:00,43.5,26.0,29.86,NW,307,11.0,24.0,50,0.00,,,0.00,weatherlink.com 1.10,2013-02-14 20:20:00,
2013-02-14 14:35:00,43.5,25.0,29.86,NW,304,14.0,27.0,49,0.00,,,0.00,weatherlink.com 1.10,2013-02-14 20:35:00,
2013-02-14 14:49:00,43.5,25.0,29.87,WNW,300,18.0,26.0,48,0.00,,,0.00,weatherlink.com 1.10,2013-02-14 20:49:00,
2013-02-14 15:05:00,44.4,25.0,29.87,WNW,300,18.0,26.0,46,0.00,,,0.00,weatherlink.com 1.10,2013-02-14 21:05:00,
2013-02-14 15:20:00,44.0,25.0,29.88,WNW,291,12.0,31.0,47,0.00,,,0.00,weatherlink.com 1.10,2013-02-14 21:20:00,
2013-02-14 15:35:00,43.9,25.0,29.88,WNW,293,14.0,24.0,47,0.00,,,0.00,weatherlink.com 1.10,2013-02-14 21:35:00,
2013-02-14 15:50:00,43.4,24.0,29.89,WNW,298,13.0,23.0,47,0.00,,,0.00,weatherlink.com 1.10,2013-02-14 21:50:00,
2013-02-14 16:05:00,42.9,24.0,29.89,WNW,300,17.0,21.0,47,0.00,,,0.00,weatherlink.com 1.10,2013-02-14 22:05:00,
2013-02-14 16:20:00,42.2,25.0,29.90,WNW,293,18.0,23.0,50,0.00,,,0.00,weatherlink.com 1.10,2013-02-14 22:20:00,
2013-02-14 16:35:00,41.4,26.0,29.90,NW,309,15.0,22.0,55,0.00,,,0.00,weatherlink.com 1.10,2013-02-14 22:35:00,
2013-02-14 16:50:00,41.3,26.0,29.91,WNW,301,13.0,20.0,54,0.00,,,0.00,weatherlink.com 1.10,2013-02-14 22:50:00,
2013-02-14 17:05:00,41.3,26.0,29.91,NW,321,7.0,15.0,55,0.00,,,0.00,weatherlink.com 1.10,2013-02-14 23:05:00,
2013-02-14 17:20:00,40.0,27.0,29.92,NW,314,8.0,16.0,60,0.00,,,0.00,weatherlink.com 1.10,2013-02-14 23:20:00,
2013-02-14 17:35:00,39.3,28.0,29.93,NNW,333,7.0,16.0,63,0.00,,,0.00,weatherlink.com 1.10,2013-02-14 23:35:00,
2013-02-14 17:50:00,38.4,28.0,29.93,NW,307,10.0,17.0,66,0.00,,,0.00,weatherlink.com 1.10,2013-02-14 23:50:00,
2013-02-14 18:05:00,37.7,28.0,29.93,NW,308,7.0,14.0,67,0.00,,,0.00,weatherlink.com 1.10,2013-02-15 00:05:00,
2013-02-14 18:20:00,37.3,28.0,29.94,NNW,328,9.0,14.0,69,0.00,,,0.00,weatherlink.com 1.10,2013-02-15 00:20:00,
2013-02-14 18:35:00,36.8,29.0,29.95,NW,323,10.0,13.0,73,0.00,,,0.00,weatherlink.com 1.10,2013-02-15 00:35:00,
2013-02-14 18:50:00,36.0,29.0,29.95,NW,315,10.0,16.0,77,0.00,,,0.00,weatherlink.com 1.10,2013-02-15 00:50:00,
2013-02-14 19:20:00,34.7,31.0,29.97,WNW,295,10.0,17.0,85,0.00,,,0.00,weatherlink.com 1.10,2013-02-15 01:20:00,
2013-02-14 19:35:00,32.9,31.0,29.97,NW,306,7.0,12.0,91,0.00,,,0.00,weatherlink.com 1.10,2013-02-15 01:35:00,
2013-02-14 19:50:00,32.9,31.0,29.98,WNW,297,8.0,11.0,92,0.00,,,0.00,weatherlink.com 1.10,2013-02-15 01:50:00,
2013-02-14 20:05:00,32.9,31.0,29.98,WNW,290,9.0,10.0,92,0.00,,,0.00,weatherlink.com 1.10,2013-02-15 02:05:00,
2013-02-14 20:20:00,33.1,31.0,29.98,NW,307,5.0,10.0,92,0.00,,,0.00,weatherlink.com 1.10,2013-02-15 02:20:00,
2013-02-14 20:35:00,31.9,29.0,30.00,North,352,24.0,28.0,90,0.00,,,0.00,weatherlink.com 1.10,2013-02-15 02:35:00,
2013-02-14 20:51:00,29.9,27.0,30.02,North,352,13.0,27.0,87,0.00,,,0.00,weatherlink.com 1.10,2013-02-15 02:51:00,
2013-02-14 21:05:00,29.4,26.0,30.04,NNW,328,17.0,23.0,86,0.00,,,0.00,weatherlink.com 1.10,2013-02-15 03:05:00,
2013-02-14 21:20:00,29.2,23.0,30.05,North,6,13.0,31.0,78,0.00,,,0.00,weatherlink.com 1.10,2013-02-15 03:20:00,
2013-02-14 21:35:00,29.1,21.0,30.06,NNW,332,17.0,25.0,71,0.00,,,0.00,weatherlink.com 1.10,2013-02-15 03:35:00,
2013-02-14 21:51:00,28.5,18.0,30.08,NW,315,9.0,24.0,64,0.00,,,0.00,weatherlink.com 1.10,2013-02-15 03:51:00,
2013-02-14 22:06:00,28.4,18.0,30.09,NNW,330,10.0,21.0,66,0.00,,,0.00,weatherlink.com 1.10,2013-02-15 04:06:00,
2013-02-14 22:21:00,28.0,19.0,30.09,NW,309,17.0,18.0,68,0.00,,,0.00,weatherlink.com 1.10,2013-02-15 04:21:00,
2013-02-14 22:36:00,27.5,19.0,30.10,WNW,288,11.0,20.0,69,0.00,,,0.00,weatherlink.com 1.10,2013-02-15 04:36:00,
2013-02-14 22:51:00,26.9,19.0,30.11,NW,312,14.0,21.0,71,0.00,,,0.00,weatherlink.com 1.10,2013-02-15 04:51:00,
2013-02-14 23:06:00,26.0,17.0,30.11,NW,315,14.0,28.0,69,0.00,,,0.00,weatherlink.com 1.10,2013-02-15 05:06:00,
2013-02-14 23:21:00,25.5,18.0,30.12,WNW,298,9.0,23.0,72,0.00,,,0.00,weatherlink.com 1.10,2013-02-15 05:21:00,
2013-02-14 23:36:00,24.8,18.0,30.13,NW,311,11.0,20.0,75,0.00,,,0.00,weatherlink.com 1.10,2013-02-15 05:36:00,
2013-02-14 23:51:00,23.8,18.0,30.13,NNW,328,15.0,19.0,77,0.00,,,0.00,weatherlink.com 1.10,2013-02-15 05:51:00,